Airfield :
LOGIN :

Register | Disclaimer

   EN    FR    IT 

 










Legend :    VFR   Marginal VFR   IFR   Intensive IFR   Very Intensive IFR
Visi :
Ceiling :
>= 8 km
>= 3000ft
5 to 8 km
1000 to 3000 ft
1500m to 5 km
500 to 1000 ft
800 to 1500m
200 to 500 ft
< 800m
< 200 ft
Symbols :   Thunderstorms  Fog  Heavy snow  Heavy precipitations  Wind > 20 kt
SIGMETs :     Misc.  Thunderstorms  Icing  Turbulence  Mountain Waves  Volcanic Ashes






- Airport Elevation : 2096 ft
- IATA code : AUR


LFLW - Aurillac

CURRENT METAR :
  • 190600Z AUTO 00000KT CAVOK 19/13 Q1014 NOSIG

EXPIRED METARs :
  • 190530Z AUTO 00000KT CAVOK 16/13 Q1013
  • 190500Z AUTO 10005KT CAVOK 15/12 Q1013
  • 190430Z AUTO 12003KT 9999 FEW056 14/12 Q1013
  • 190400Z AUTO 15002KT 9999 BKN054 OVC140 15/12 Q1013
  • 190330Z AUTO 00000KT 9999 FEW054 BKN150 16/12 Q1013
  • 190300Z AUTO 09005KT CAVOK 17/12 Q1013
  • 190230Z AUTO 11008KT 080V150 CAVOK 18/12 Q1013
  • 190200Z AUTO 13008KT 100V160 CAVOK 18/12 Q1013
  • 190130Z AUTO 13009KT 100V160 CAVOK 18/12 Q1013

TAF TAF LFLW
Valid from the 19 at 06:00 until the 19 at 15:00 UTC


190500Z 1906/1915 14006KT CAVOK
TEMPO 1913/1915 SHRA SCT030TCU
PROB30
TEMPO 1913/1915 VRB15G35KT 2000 TSRA BKN025CB



MET'MAP, your aeronautical weather chart ! - Copyright ORBIFLY December 2007 - Disclaimer

ORBIFLY MET'MAP TEAM :

Programming & Development : Alexandra Zaïnal
Original concept : Baudouin d'Aumeries
Technical & hardware support : Manuel Goepfert
Assistance : Marc-Olivier Méhu




SOURCES & CREDITS :

   NOAA